Time;durP1;ratioP1;P1;durP2;ratioP2;P2;SDS_P1;SDS_P2;PMS_P1;PMS_P2;Temp;Humidity;BMP_temperature;BMP_pressure;BME280_temperature;BME280_humidity;BME280_pressure;Samples;Min_cycle;Max_cycle;Signal;HPM_P1;HPM_P2
2023/01/29 00:00:09;;;;;;;10.60;4.83;;;;;;;2.16;57.78;101381.63;5024841;27;97670;-85
2023/01/29 00:02:38;;;;;;;9.18;4.78;;;;;;;2.12;58.13;101375.50;5037535;27;97136;-84
2023/01/29 00:05:05;;;;;;;10.57;4.67;;;;;;;2.12;57.94;101377.22;5027678;27;98166;-84
2023/01/29 00:07:31;;;;;;;7.30;4.27;;;;;;;2.07;57.97;101381.47;5013587;27;101299;-85
2023/01/29 00:09:56;;;;;;;11.07;5.07;;;;;;;1.89;57.86;101349.22;5030015;27;97147;-86
2023/01/29 00:12:22;;;;;;;11.67;5.20;;;;;;;2.13;58.14;101395.41;5009361;27;97339;-84
2023/01/29 00:14:48;;;;;;;7.60;4.43;;;;;;;2.12;58.51;101393.63;5033912;27;98507;-84
2023/01/29 00:17:13;;;;;;;11.30;5.40;;;;;;;2.14;58.37;101378.13;5012451;27;98095;-85
2023/01/29 00:19:39;;;;;;;13.27;5.97;;;;;;;2.14;58.39;101383.31;5003141;27;97356;-85
2023/01/29 00:22:04;;;;;;;13.23;6.83;;;;;;;2.12;58.07;101383.28;4984303;28;97506;-84
2023/01/29 00:24:30;;;;;;;11.13;5.73;;;;;;;2.12;57.96;101383.28;4998111;27;101780;-85
2023/01/29 00:26:55;;;;;;;13.80;6.70;;;;;;;2.10;58.68;101369.44;5015638;27;97320;-85
2023/01/29 00:29:21;;;;;;;12.77;6.80;;;;;;;2.12;58.40;101369.44;5025676;27;96723;-85
2023/01/29 00:31:46;;;;;;;16.87;7.27;;;;;;;2.01;58.63;101345.97;5007256;27;97097;-85
2023/01/29 00:34:12;;;;;;;12.93;7.43;;;;;;;2.02;58.29;101358.06;4998671;27;100587;-85
2023/01/29 00:36:38;;;;;;;14.70;7.30;;;;;;;2.08;58.34;101365.94;5021172;27;97922;-85
2023/01/29 00:39:09;;;;;;;15.87;8.23;;;;;;;2.07;58.29;101360.75;5014829;27;97499;-85
2023/01/29 00:47:29;;;;;;;13.10;5.93;;;;;;;1.87;58.30;101326.72;5031059;27;101836;-85
2023/01/29 00:49:49;;;;;;;15.40;7.57;;;;;;;1.92;58.73;101336.34;4998188;28;97895;-85
2023/01/29 00:52:24;;;;;;;16.97;8.67;;;;;;;1.97;58.66;101333.81;5019344;27;97382;-85
2023/01/29 00:54:53;;;;;;;16.83;7.63;;;;;;;1.97;58.34;101326.03;5007708;27;101297;-85
2023/01/29 00:57:19;;;;;;;14.07;7.33;;;;;;;1.95;58.67;101323.44;5030937;27;102121;-85
2023/01/29 00:59:45;;;;;;;13.60;7.27;;;;;;;1.97;58.45;101326.03;5026655;27;97166;-85
2023/01/29 01:04:55;;;;;;;11.23;6.27;;;;;;;1.97;58.44;101313.94;5022365;27;102261;-85
2023/01/29 01:07:22;;;;;;;13.43;6.23;;;;;;;1.94;58.65;101313.91;5029906;27;97924;-85
2023/01/29 01:12:33;;;;;;;14.00;6.30;;;;;;;1.96;58.54;101316.53;5033771;27;97118;-84
2023/01/29 01:14:58;;;;;;;13.43;6.67;;;;;;;1.96;58.90;101309.63;5016564;27;101394;-85
2023/01/29 01:17:24;;;;;;;15.03;7.00;;;;;;;1.92;58.32;101294.00;5019790;27;101657;-84
2023/01/29 01:19:50;;;;;;;14.03;7.23;;;;;;;1.86;58.50;101276.63;5034550;27;97292;-84
2023/01/29 01:22:16;;;;;;;13.57;7.00;;;;;;;2.00;58.59;101301.03;5018604;28;96834;-85
2023/01/29 01:24:42;;;;;;;12.33;6.57;;;;;;;2.02;58.84;101296.78;5012570;27;98157;-85
2023/01/29 01:27:08;;;;;;;12.53;6.80;;;;;;;1.99;58.99;101301.91;5007385;27;101002;-84
2023/01/29 01:29:34;;;;;;;14.63;6.57;;;;;;;2.08;59.00;101311.53;5007429;27;97324;-85
2023/01/29 01:32:00;;;;;;;10.57;6.10;;;;;;;2.10;59.33;101303.81;4999037;27;96913;-85
2023/01/29 01:34:26;;;;;;;12.20;6.87;;;;;;;2.13;59.63;101303.88;5028992;27;101273;-84
2023/01/29 01:36:52;;;;;;;11.23;6.23;;;;;;;2.06;59.51;101302.00;5006153;27;101465;-84
2023/01/29 01:39:18;;;;;;;12.03;5.93;;;;;;;1.98;59.39;101276.00;4995970;27;97309;-84
2023/01/29 01:41:45;;;;;;;11.13;6.03;;;;;;;2.12;59.26;101304.69;5002131;28;97323;-85
2023/01/29 01:44:52;;;;;;;11.80;5.47;;;;;;;2.11;59.01;101315.91;5013740;27;101110;-85
2023/01/29 01:47:34;;;;;;;13.57;5.40;;;;;;;2.02;59.24;101286.41;5029164;27;97370;-85
2023/01/29 01:50:07;;;;;;;11.50;5.00;;;;;;;2.15;59.49;101300.44;5003632;27;97118;-84
2023/01/29 01:52:35;;;;;;;7.27;3.97;;;;;;;2.14;59.24;101296.09;5016849;27;96976;-85
2023/01/29 01:55:01;;;;;;;8.20;4.60;;;;;;;2.09;59.05;101282.19;5009563;27;101390;-84
2023/01/29 01:57:28;;;;;;;7.13;4.00;;;;;;;1.91;58.84;101248.25;5009058;28;100935;-84
2023/01/29 01:59:58;;;;;;;9.93;4.07;;;;;;;2.17;58.86;101290.09;5019982;27;96999;-85
2023/01/29 02:10:42;;;;;;;7.03;3.13;;;;;;;2.16;58.45;101290.97;5026899;27;97352;-84
2023/01/29 02:13:08;;;;;;;7.90;3.60;;;;;;;2.14;58.68;101288.31;5007478;27;96900;-86
2023/01/29 02:15:33;;;;;;;7.03;3.70;;;;;;;2.10;57.98;101273.59;5008775;27;101300;-84
2023/01/29 02:18:01;;;;;;;9.03;3.37;;;;;;;2.05;58.07;101283.00;5014159;27;101519;-84
2023/01/29 02:20:30;;;;;;;8.30;3.10;;;;;;;2.16;57.99;101304.78;5020024;27;97122;-85
2023/01/29 02:23:15;;;;;;;9.77;4.10;;;;;;;2.19;58.12;101312.59;5031069;27;96887;-85
2023/01/29 02:26:13;;;;;;;7.40;3.87;;;;;;;2.16;57.73;101307.38;5000977;28;101798;-84
2023/01/29 02:28:42;;;;;;;8.33;3.83;;;;;;;2.19;58.29;101301.38;5034666;27;97083;-84
2023/01/29 02:31:24;;;;;;;6.97;3.83;;;;;;;2.17;57.73;101298.75;4989256;27;96841;-84
2023/01/29 02:34:08;;;;;;;7.60;4.33;;;;;;;2.18;57.24;101302.19;5013443;27;97212;-84
2023/01/29 02:37:08;;;;;;;6.93;3.30;;;;;;;2.14;57.52;101293.50;5018024;27;101178;-85
2023/01/29 02:39:40;;;;;;;7.80;3.97;;;;;;;2.15;57.88;101297.88;4998147;27;101390;-85
2023/01/29 02:42:22;;;;;;;8.25;4.20;;;;;;;2.13;57.70;101299.56;5003892;27;97597;-85
2023/01/29 02:44:56;;;;;;;8.98;3.80;;;;;;;2.08;57.49;101287.38;5011866;27;97154;-85
2023/01/29 02:47:37;;;;;;;5.47;3.27;;;;;;;2.20;57.92;101308.28;5024419;27;98437;-85
2023/01/29 02:50:14;;;;;;;7.57;3.93;;;;;;;2.17;57.57;101308.22;5021535;27;101203;-85
2023/01/29 02:52:53;;;;;;;8.63;4.00;;;;;;;2.18;57.65;101310.88;5004774;27;97156;-85
2023/01/29 02:55:24;;;;;;;7.43;3.77;;;;;;;2.19;57.57;101298.78;5020643;27;96936;-85
2023/01/29 02:57:51;;;;;;;8.77;4.28;;;;;;;2.20;57.23;101298.78;5035334;27;101763;-84
2023/01/29 03:00:24;;;;;;;8.83;4.07;;;;;;;2.16;57.41;101291.81;4995005;27;99963;-85
2023/01/29 03:02:58;;;;;;;11.40;4.33;;;;;;;2.20;57.79;101297.91;5007482;27;97617;-84
2023/01/29 03:05:49;;;;;;;9.77;4.70;;;;;;;2.16;57.61;101304.78;5041239;27;96746;-85
2023/01/29 03:08:20;;;;;;;8.32;4.43;;;;;;;2.17;57.22;101316.88;5043697;27;101353;-86
2023/01/29 03:10:53;;;;;;;8.60;4.37;;;;;;;2.03;57.15;101280.38;4990980;27;100955;-84
2023/01/29 03:13:44;;;;;;;9.20;4.10;;;;;;;2.17;57.34;101301.31;5029286;27;96761;-85
2023/01/29 03:16:39;;;;;;;7.05;3.80;;;;;;;2.17;57.13;101297.88;5014003;27;97216;-85
2023/01/29 03:19:19;;;;;;;7.60;4.30;;;;;;;2.18;57.10;101295.31;5009562;28;101998;-85
2023/01/29 03:21:59;;;;;;;7.00;3.93;;;;;;;2.06;57.11;101279.56;4993860;27;100892;-85
2023/01/29 03:33:59;;;;;;;7.00;3.25;;;;;;;2.04;57.58;101268.31;4985908;28;101166;-85
2023/01/29 03:36:46;;;;;;;6.27;3.20;;;;;;;2.14;57.33;101297.81;4986391;28;97345;-84
2023/01/29 03:39:14;;;;;;;5.47;3.00;;;;;;;2.17;57.23;101297.88;4987280;27;97606;-84
2023/01/29 03:41:52;;;;;;;5.70;3.23;;;;;;;2.16;57.40;101280.59;5005621;28;101563;-84
2023/01/29 03:44:39;;;;;;;6.30;3.40;;;;;;;2.17;57.08;101287.50;4988971;27;101671;-85
2023/01/29 03:47:21;;;;;;;5.57;3.20;;;;;;;2.15;56.75;101284.91;5009513;28;97133;-85
2023/01/29 03:50:02;;;;;;;6.43;3.00;;;;;;;2.14;56.98;101279.69;5010737;28;97181;-85
2023/01/29 03:52:51;;;;;;;5.85;3.22;;;;;;;2.18;56.38;101282.38;4992875;28;101471;-85
2023/01/29 03:55:39;;;;;;;7.67;3.47;;;;;;;2.20;56.71;101272.00;4983172;28;101345;-85
2023/01/29 03:58:16;;;;;;;8.23;3.90;;;;;;;2.18;56.29;101278.88;4986735;28;97282;-85
2023/01/29 04:00:55;;;;;;;5.73;3.03;;;;;;;2.14;56.12;101277.97;5004982;28;97382;-85
2023/01/29 04:03:47;;;;;;;4.87;2.83;;;;;;;2.17;55.98;101272.84;4998207;28;101238;-84
2023/01/29 04:06:17;;;;;;;7.57;3.70;;;;;;;2.05;56.41;101246.75;4985343;28;101334;-84
2023/01/29 04:09:02;;;;;;;6.80;3.70;;;;;;;2.14;55.90;101253.78;4999838;28;97016;-84
2023/01/29 04:11:30;;;;;;;8.33;3.87;;;;;;;2.19;55.78;101257.31;4982054;28;97351;-84
2023/01/29 04:13:56;;;;;;;5.83;3.43;;;;;;;2.17;55.54;101266.78;5004476;28;101129;-84
2023/01/29 04:16:38;;;;;;;6.50;3.60;;;;;;;2.15;55.65;101263.28;5003955;28;101074;-85
2023/01/29 04:19:12;;;;;;;6.33;3.83;;;;;;;2.17;55.54;101265.06;5014686;27;97233;-85
2023/01/29 04:21:40;;;;;;;5.77;3.33;;;;;;;2.17;55.57;101264.19;5023970;27;97371;-84
2023/01/29 04:24:06;;;;;;;7.57;4.30;;;;;;;2.18;55.42;101261.66;4972913;28;101686;-84
2023/01/29 04:26:49;;;;;;;7.67;4.00;;;;;;;2.17;55.22;101264.19;4978945;27;100528;-85
2023/01/29 04:29:38;;;;;;;7.00;4.50;;;;;;;2.16;55.14;101254.69;4974329;28;97965;-84
2023/01/29 04:32:22;;;;;;;6.20;4.07;;;;;;;2.16;55.45;101257.28;5001695;28;97961;-85
2023/01/29 04:35:05;;;;;;;6.90;4.00;;;;;;;2.12;55.43;101238.22;5001241;28;101669;-85
2023/01/29 04:37:31;;;;;;;7.40;4.33;;;;;;;2.18;55.12;101247.78;5001486;28;101311;-84
2023/01/29 04:40:14;;;;;;;9.37;4.93;;;;;;;2.14;55.66;101233.94;5005238;28;96757;-85
2023/01/29 04:42:48;;;;;;;10.00;4.07;;;;;;;2.02;55.33;101221.66;4994477;28;98063;-84
2023/01/29 04:45:30;;;;;;;6.90;4.20;;;;;;;2.14;54.98;101222.69;4988760;28;101363;-85
2023/01/29 04:48:05;;;;;;;7.77;4.43;;;;;;;2.13;55.16;101227.00;5000802;28;101488;-85
2023/01/29 04:50:35;;;;;;;6.87;4.33;;;;;;;2.15;55.25;101217.56;5001811;27;97243;-85
2023/01/29 04:53:10;;;;;;;7.37;4.60;;;;;;;2.07;54.93;101195.84;4996467;28;97543;-84
2023/01/29 04:55:49;;;;;;;9.60;5.17;;;;;;;2.09;55.08;101209.66;4998749;27;101772;-86
2023/01/29 04:58:28;;;;;;;8.83;4.63;;;;;;;2.12;55.11;101220.06;4969299;28;100622;-84
2023/01/29 05:00:54;;;;;;;8.63;4.70;;;;;;;2.07;55.22;101205.34;4980713;28;96953;-85
2023/01/29 05:03:22;;;;;;;8.40;4.53;;;;;;;2.17;54.95;101214.97;4993792;28;97186;-85
2023/01/29 05:05:49;;;;;;;11.57;6.23;;;;;;;2.12;55.23;101211.44;4977384;28;101539;-85
2023/01/29 05:08:17;;;;;;;8.90;4.33;;;;;;;2.07;55.25;101202.75;5002573;28;97375;-86
2023/01/29 05:10:44;;;;;;;10.40;4.53;;;;;;;2.12;55.17;101217.47;4975845;28;97369;-83
2023/01/29 05:13:12;;;;;;;8.00;4.73;;;;;;;2.14;54.93;101212.34;4984187;28;98002;-83
2023/01/29 05:15:43;;;;;;;8.50;5.13;;;;;;;2.11;55.10;101205.38;5008633;28;97528;-85
2023/01/29 05:18:09;;;;;;;7.60;5.10;;;;;;;2.13;55.02;101205.44;4996395;27;100501;-84
2023/01/29 05:20:37;;;;;;;8.30;4.77;;;;;;;2.14;54.98;101213.19;4994184;28;96818;-84
2023/01/29 05:23:03;;;;;;;10.20;4.47;;;;;;;2.12;54.78;101189.00;5002412;27;97953;-84
2023/01/29 05:25:31;;;;;;;6.83;4.30;;;;;;;1.95;54.67;101164.56;4999669;28;101465;-84
2023/01/29 05:28:07;;;;;;;8.87;4.50;;;;;;;2.10;54.88;101197.63;5011732;27;101184;-85
2023/01/29 05:30:34;;;;;;;6.73;4.27;;;;;;;2.10;55.06;101193.31;4996679;28;96831;-85
2023/01/29 05:33:00;;;;;;;7.17;4.20;;;;;;;2.12;55.18;101194.16;5011782;27;97211;-85
2023/01/29 05:35:27;;;;;;;8.60;3.80;;;;;;;2.14;54.76;101191.63;4993218;28;101548;-84
2023/01/29 05:37:56;;;;;;;5.77;3.50;;;;;;;2.15;54.50;101194.25;4992796;27;101617;-85
2023/01/29 05:40:22;;;;;;;6.60;4.17;;;;;;;2.01;54.68;101177.63;4986945;28;98185;-84
2023/01/29 05:42:49;;;;;;;7.17;3.80;;;;;;;2.03;54.64;101181.09;4978105;28;97019;-84
2023/01/29 05:45:16;;;;;;;9.30;4.33;;;;;;;2.00;54.71;101168.09;4994314;28;97416;-85
2023/01/29 05:47:42;;;;;;;7.87;4.03;;;;;;;2.10;54.56;101192.44;4996477;27;101145;-85
2023/01/29 05:50:08;;;;;;;7.47;3.80;;;;;;;2.12;54.60;101211.44;4986149;28;97162;-84
2023/01/29 05:52:34;;;;;;;8.03;3.73;;;;;;;2.11;54.77;101200.22;4977306;28;96888;-84
2023/01/29 05:54:59;;;;;;;6.23;3.70;;;;;;;2.07;54.78;101182.91;5002114;28;100755;-84
2023/01/29 05:57:25;;;;;;;5.33;3.30;;;;;;;2.09;54.28;101181.19;4977969;28;101129;-84
2023/01/29 05:59:50;;;;;;;6.33;4.23;;;;;;;2.07;54.43;101185.50;4983885;28;97046;-84
2023/01/29 06:02:16;;;;;;;8.63;4.10;;;;;;;1.87;54.36;101146.34;4989814;28;97328;-84
2023/01/29 06:04:41;;;;;;;7.83;4.50;;;;;;;2.03;54.61;101191.44;4996499;28;101597;-84
2023/01/29 06:07:07;;;;;;;6.57;3.77;;;;;;;2.06;54.48;101194.09;4998543;28;100791;-85
2023/01/29 06:09:32;;;;;;;8.70;5.17;;;;;;;2.00;54.62;101187.09;4997754;28;96804;-84
2023/01/29 06:11:58;;;;;;;9.50;4.57;;;;;;;1.99;54.32;101184.50;4976421;28;97678;-84
2023/01/29 06:14:23;;;;;;;8.00;4.30;;;;;;;1.95;54.52;101174.91;4997668;28;101826;-84
2023/01/29 06:16:49;;;;;;;9.77;4.57;;;;;;;2.02;54.56;101194.91;4992906;28;97732;-85
2023/01/29 06:19:16;;;;;;;6.67;4.53;;;;;;;2.02;54.70;101190.59;4988309;28;97114;-84
2023/01/29 06:21:42;;;;;;;8.37;4.80;;;;;;;2.01;54.43;101188.84;5011750;28;97153;-84
2023/01/29 06:24:08;;;;;;;6.97;4.40;;;;;;;1.95;54.44;101174.91;4988844;28;101285;-85
2023/01/29 06:26:33;;;;;;;7.77;4.17;;;;;;;1.96;54.32;101171.50;4983463;28;101490;-85
2023/01/29 06:28:59;;;;;;;7.87;4.83;;;;;;;2.09;54.36;101194.13;5001404;28;97359;-85
2023/01/29 06:31:24;;;;;;;9.80;4.37;;;;;;;1.95;54.45;101182.69;5003003;28;97258;-85
2023/01/29 06:33:50;;;;;;;8.50;5.00;;;;;;;2.01;54.69;101203.53;4990540;28;100221;-84
2023/01/29 06:36:15;;;;;;;6.83;3.80;;;;;;;2.06;54.58;101206.16;4975311;28;101718;-85
2023/01/29 06:38:41;;;;;;;6.30;4.30;;;;;;;2.04;54.32;101211.34;5006833;28;97285;-85
2023/01/29 06:41:11;;;;;;;6.50;4.83;;;;;;;2.05;54.53;101207.91;4974366;28;97166;-84
2023/01/29 06:43:37;;;;;;;8.33;4.70;;;;;;;2.03;54.48;101212.16;4992413;28;101804;-85
2023/01/29 06:46:05;;;;;;;7.83;4.87;;;;;;;1.89;54.22;101191.28;5027195;27;97923;-84
2023/01/29 06:48:30;;;;;;;12.00;5.40;;;;;;;1.98;54.39;101214.72;4990256;28;97015;-84
2023/01/29 06:51:01;;;;;;;10.03;5.27;;;;;;;1.93;54.30;101206.00;5000562;28;97220;-84
2023/01/29 06:53:26;;;;;;;9.13;5.10;;;;;;;2.06;54.21;101224.31;4965267;28;101466;-84
2023/01/29 06:55:52;;;;;;;9.63;5.57;;;;;;;2.04;54.78;101226.88;4987101;28;101158;-85
2023/01/29 06:58:18;;;;;;;15.37;6.53;;;;;;;1.90;54.50;101213.72;5009387;28;96766;-85
2023/01/29 07:00:44;;;;;;;10.77;5.90;;;;;;;2.05;54.45;101249.34;4985036;28;97133;-84
2023/01/29 07:03:10;;;;;;;14.77;7.57;;;;;;;1.86;54.64;101226.56;4981091;28;101388;-85
2023/01/29 07:05:36;;;;;;;12.37;5.93;;;;;;;2.04;54.17;101253.66;4994650;28;97455;-84
2023/01/29 07:08:01;;;;;;;8.67;5.20;;;;;;;2.06;54.62;101252.78;4978629;28;97162;-85
2023/01/29 07:10:27;;;;;;;8.70;5.47;;;;;;;2.05;54.49;101262.28;4996495;28;97089;-84
2023/01/29 07:12:52;;;;;;;7.40;5.33;;;;;;;2.06;54.31;101263.16;4991763;27;97872;-84
2023/01/29 07:15:20;;;;;;;7.60;4.43;;;;;;;2.06;54.13;101255.38;4969073;28;101245;-84
2023/01/29 07:17:59;;;;;;;7.87;5.87;;;;;;;1.99;54.22;101250.09;4996495;28;96763;-86
2023/01/29 07:20:26;;;;;;;8.90;5.00;;;;;;;2.11;54.19;101256.34;5002572;28;97434;-85
2023/01/29 07:22:51;;;;;;;7.13;4.20;;;;;;;2.12;54.36;101265.84;4982763;27;101238;-84
2023/01/29 07:25:17;;;;;;;7.57;4.37;;;;;;;2.12;54.32;101266.69;5016243;27;97817;-85
2023/01/29 07:27:43;;;;;;;6.40;4.57;;;;;;;2.12;54.81;101261.53;5002022;27;97110;-85
2023/01/29 07:30:09;;;;;;;9.00;4.73;;;;;;;2.17;54.24;101264.19;5015772;27;98564;-85
2023/01/29 07:32:34;;;;;;;8.00;4.40;;;;;;;2.21;54.10;101265.97;5008511;27;101290;-84
2023/01/29 07:35:00;;;;;;;7.37;4.63;;;;;;;2.22;54.07;101250.47;5019667;27;97970;-84
2023/01/29 07:37:26;;;;;;;8.57;5.03;;;;;;;2.23;53.57;101248.75;5016493;27;97217;-85
2023/01/29 07:39:51;;;;;;;9.17;5.50;;;;;;;2.23;54.05;101246.16;5018850;27;97139;-84
2023/01/29 07:42:17;;;;;;;7.63;5.07;;;;;;;2.26;53.87;101252.25;5015339;27;97516;-85
2023/01/29 07:44:42;;;;;;;6.90;4.80;;;;;;;2.17;53.92;101233.09;5013260;27;101288;-85
2023/01/29 07:47:08;;;;;;;10.93;4.93;;;;;;;2.18;53.31;101219.28;5016537;27;96899;-84
2023/01/29 07:49:33;;;;;;;7.07;4.40;;;;;;;2.32;53.48;101240.22;5018307;27;100010;-85
2023/01/29 07:51:59;;;;;;;7.93;4.80;;;;;;;2.41;53.73;101261.94;5015080;27;101154;-85
2023/01/29 07:54:24;;;;;;;9.10;4.67;;;;;;;2.43;53.44;101262.00;5034529;27;98347;-84
2023/01/29 07:56:50;;;;;;;7.53;5.10;;;;;;;2.49;53.37;101275.03;5022082;27;97282;-84
2023/01/29 07:59:16;;;;;;;6.63;4.37;;;;;;;2.45;53.08;101255.97;5025070;27;97011;-84
2023/01/29 08:01:41;;;;;;;9.57;5.37;;;;;;;2.46;53.40;101249.06;5027479;27;98403;-85
2023/01/29 08:04:07;;;;;;;9.40;4.97;;;;;;;2.38;52.93;101217.84;5010130;27;101148;-84
2023/01/29 08:06:32;;;;;;;10.50;5.23;;;;;;;2.41;53.33;101230.00;5019896;27;96834;-85
2023/01/29 08:08:58;;;;;;;9.20;5.60;;;;;;;2.43;53.20;101236.06;4997733;27;97080;-86
2023/01/29 08:11:24;;;;;;;12.70;5.70;;;;;;;2.46;53.32;101228.34;5026031;27;97655;-84
2023/01/29 08:13:49;;;;;;;11.30;5.20;;;;;;;2.47;53.31;101232.66;5004121;27;101356;-85
2023/01/29 08:16:15;;;;;;;9.93;5.13;;;;;;;2.41;53.25;101237.75;5003346;27;97337;-85
2023/01/29 08:18:46;;;;;;;8.47;6.03;;;;;;;2.40;53.33;101236.03;5010760;27;97271;-85
2023/01/29 08:21:12;;;;;;;9.47;5.67;;;;;;;2.35;53.53;101217.81;4990342;27;101578;-85
2023/01/29 08:23:37;;;;;;;10.50;6.20;;;;;;;2.40;53.36;101216.16;4990046;28;101358;-85
2023/01/29 08:26:04;;;;;;;11.13;5.60;;;;;;;2.45;53.25;101224.00;5015830;28;96808;-84
2023/01/29 08:28:29;;;;;;;7.33;4.80;;;;;;;2.48;52.92;101229.25;5023563;27;97337;-84
2023/01/29 08:30:55;;;;;;;9.43;5.13;;;;;;;2.47;53.49;101230.97;4991125;28;98034;-85
2023/01/29 08:33:21;;;;;;;10.47;6.17;;;;;;;2.42;53.08;101211.88;5014748;28;100526;-84
2023/01/29 08:35:50;;;;;;;9.60;5.13;;;;;;;2.52;52.96;101219.78;4996400;28;98668;-85
2023/01/29 08:38:16;;;;;;;10.10;5.63;;;;;;;2.54;52.91;101208.59;4967072;28;97267;-83
2023/01/29 08:40:42;;;;;;;7.93;5.10;;;;;;;2.53;52.93;101206.84;5005738;28;101018;-86
2023/01/29 08:43:10;;;;;;;12.70;6.80;;;;;;;2.55;53.27;101201.66;5007156;28;101265;-85
2023/01/29 08:45:38;;;;;;;7.43;5.17;;;;;;;2.60;52.81;101197.41;4970838;28;97117;-86
2023/01/29 08:48:04;;;;;;;8.90;5.80;;;;;;;2.59;52.75;101183.59;5007634;28;97405;-85
2023/01/29 08:50:30;;;;;;;9.47;5.60;;;;;;;2.56;52.94;101169.69;4990210;28;101173;-85
2023/01/29 08:52:58;;;;;;;9.57;5.30;;;;;;;2.69;53.14;101182.84;5012211;28;98359;-85
2023/01/29 08:55:24;;;;;;;10.30;5.77;;;;;;;2.74;53.04;101185.50;5026177;27;96934;-87
2023/01/29 08:57:49;;;;;;;10.00;6.07;;;;;;;2.79;53.05;101186.41;4990552;28;97711;-84
2023/01/29 09:00:15;;;;;;;17.10;6.57;;;;;;;2.83;52.84;101189.91;5009394;28;97852;-86
2023/01/29 09:02:41;;;;;;;13.40;6.47;;;;;;;2.82;52.68;101181.28;4990596;28;101392;-86
2023/01/29 09:05:07;;;;;;;10.83;5.93;;;;;;;2.71;52.93;101165.59;4991191;28;97113;-86
2023/01/29 09:07:33;;;;;;;13.00;6.60;;;;;;;2.90;52.37;101183.94;5037450;27;96836;-90
2023/01/29 09:09:58;;;;;;;16.07;8.40;;;;;;;2.86;52.76;101184.75;4972422;27;101432;-86
2023/01/29 09:12:24;;;;;;;10.00;6.53;;;;;;;2.85;52.45;101167.44;4998960;28;97574;-82
2023/01/29 09:14:49;;;;;;;10.47;6.87;;;;;;;3.01;52.97;101179.75;5031785;27;97288;-86
2023/01/29 09:17:15;;;;;;;11.67;6.63;;;;;;;3.18;52.81;101191.16;4983011;28;96846;-84
2023/01/29 09:19:40;;;;;;;8.47;5.97;;;;;;;3.21;52.53;101195.50;5014873;27;97587;-85
2023/01/29 09:22:06;;;;;;;10.03;6.33;;;;;;;3.23;52.61;101191.22;4978256;27;100920;-86
2023/01/29 09:24:33;;;;;;;11.77;6.33;;;;;;;3.31;52.11;101189.53;4975085;27;97320;-82
2023/01/29 09:26:59;;;;;;;11.37;7.10;;;;;;;3.35;52.15;101183.53;5000992;28;97082;-81
2023/01/29 09:29:25;;;;;;;11.90;6.60;;;;;;;3.39;52.03;101180.09;5011603;27;101139;-84
2023/01/29 09:31:50;;;;;;;13.97;7.13;;;;;;;3.50;51.66;101185.41;4997997;28;101429;-85
2023/01/29 09:34:16;;;;;;;12.23;7.33;;;;;;;3.48;51.87;101176.72;4980331;27;97524;-84
2023/01/29 09:36:42;;;;;;;9.70;6.30;;;;;;;3.57;51.67;101187.19;5011326;27;96825;-85
2023/01/29 09:39:07;;;;;;;11.70;6.83;;;;;;;3.59;51.70;101180.28;5002712;28;97425;-86
2023/01/29 09:41:50;;;;;;;13.07;7.43;;;;;;;3.54;51.53;101165.53;4977741;28;101480;-85
2023/01/29 09:44:38;;;;;;;12.63;6.80;;;;;;;3.48;51.82;101155.09;4992835;27;97204;-81
2023/01/29 09:47:08;;;;;;;12.93;7.00;;;;;;;3.58;51.72;101170.75;4985677;28;97269;-81
2023/01/29 09:49:46;;;;;;;14.23;7.90;;;;;;;3.58;51.35;101167.31;4992180;28;101331;-82
2023/01/29 09:52:17;;;;;;;11.90;7.90;;;;;;;3.46;51.44;101142.13;4993286;28;98399;-81
2023/01/29 09:55:03;;;;;;;13.00;6.80;;;;;;;3.65;51.70;101155.22;5024645;27;98630;-82
2023/01/29 09:57:46;;;;;;;13.47;7.43;;;;;;;3.71;50.68;101145.75;5006429;27;97289;-81
2023/01/29 10:00:40;;;;;;;19.20;8.13;;;;;;;3.75;50.96;101131.94;5033292;27;101569;-83
2023/01/29 10:03:11;;;;;;;14.37;6.83;;;;;;;3.87;50.88;101136.34;5002196;28;100815;-81
2023/01/29 10:05:46;;;;;;;13.30;7.38;;;;;;;3.99;51.49;101133.81;5004388;28;96911;-82
2023/01/29 10:08:16;;;;;;;14.53;7.67;;;;;;;4.17;51.38;101114.84;4984862;28;96859;-80
2023/01/29 10:10:42;;;;;;;12.87;7.60;;;;;;;4.32;51.22;101119.25;4991491;28;98427;-80
2023/01/29 10:13:28;;;;;;;13.17;7.27;;;;;;;4.54;51.07;101123.69;5000406;27;97760;-80
2023/01/29 10:16:09;;;;;;;11.50;7.57;;;;;;;4.69;50.34;101114.19;4967343;28;96892;-81
2023/01/29 10:18:47;;;;;;;9.97;6.57;;;;;;;4.71;50.28;101117.63;4990409;28;97379;-80
2023/01/29 10:21:12;;;;;;;14.57;7.13;;;;;;;4.76;50.54;101113.31;5021457;27;101509;-80
2023/01/29 10:23:46;;;;;;;11.17;6.73;;;;;;;4.79;50.52;101108.13;5023632;27;98028;-84
2023/01/29 10:26:12;;;;;;;12.13;6.70;;;;;;;4.63;50.55;101081.22;5008915;27;96713;-81
2023/01/29 10:28:45;;;;;;;9.43;6.37;;;;;;;4.70;50.56;101098.56;4994308;27;97245;-79
2023/01/29 10:31:26;;;;;;;14.23;6.90;;;;;;;4.67;50.20;101098.56;4987326;28;98401;-79
2023/01/29 10:34:22;;;;;;;10.50;6.32;;;;;;;4.66;50.78;101086.44;5018253;27;97787;-79
2023/01/29 10:36:48;;;;;;;11.43;6.73;;;;;;;4.69;51.03;101089.03;4991357;28;97264;-78
2023/01/29 10:39:22;;;;;;;14.03;6.73;;;;;;;4.69;51.17;101091.66;4995920;28;97338;-76
2023/01/29 10:42:04;;;;;;;12.17;6.60;;;;;;;4.60;51.39;101069.97;4999020;28;97983;-79
2023/01/29 10:44:39;;;;;;;9.73;6.28;;;;;;;4.70;51.13;101082.97;5021671;27;101784;-78
2023/01/29 10:47:29;;;;;;;10.87;6.40;;;;;;;4.51;51.48;101071.66;5005986;28;96841;-79
2023/01/29 10:50:16;;;;;;;20.57;10.50;;;;;;;4.59;51.31;101078.59;5015126;27;97392;-77
2023/01/29 10:52:51;;;;;;;16.10;8.13;;;;;;;4.40;51.83;101062.97;4994855;28;101284;-81
2023/01/29 10:55:28;;;;;;;12.80;7.73;;;;;;;4.53;51.94;101084.66;5006354;28;100297;-82
2023/01/29 10:58:04;;;;;;;12.93;8.37;;;;;;;4.44;51.97;101069.91;5000819;28;97241;-81
2023/01/29 11:00:36;;;;;;;14.47;8.67;;;;;;;4.29;52.00;101030.88;4995040;27;97067;-84
2023/01/29 11:03:28;;;;;;;21.92;10.05;;;;;;;4.49;52.50;101060.38;4979957;28;101690;-78
2023/01/29 11:05:54;;;;;;;25.53;12.93;;;;;;;4.55;52.72;101056.94;4989243;28;101638;-77
2023/01/29 11:08:27;;;;;;;18.57;9.20;;;;;;;4.49;52.64;101030.91;5017374;28;98032;-78
2023/01/29 11:11:08;;;;;;;17.20;9.60;;;;;;;4.65;52.79;101045.66;4989655;28;96882;-78
2023/01/29 11:13:42;;;;;;;18.83;9.20;;;;;;;4.63;52.75;101043.97;5001992;27;97859;-78
2023/01/29 11:16:08;;;;;;;18.03;9.80;;;;;;;4.59;52.84;101048.25;4986538;28;101201;-77
2023/01/29 11:18:53;;;;;;;12.27;7.07;;;;;;;4.59;52.61;101045.66;4996566;28;96845;-78
2023/01/29 11:21:19;;;;;;;12.90;7.97;;;;;;;4.52;52.85;101041.31;4997524;27;97452;-78
2023/01/29 11:23:45;;;;;;;16.40;9.30;;;;;;;4.44;52.87;101030.91;5010693;27;101764;-77
2023/01/29 11:26:12;;;;;;;14.43;8.07;;;;;;;4.53;53.17;101043.06;5018362;27;97398;-78
2023/01/29 11:28:43;;;;;;;9.77;6.67;;;;;;;4.50;53.31;101024.84;5009419;27;97231;-78
2023/01/29 11:31:16;;;;;;;10.07;6.17;;;;;;;4.51;53.37;101037.88;5013899;27;97105;-79
2023/01/29 11:33:42;;;;;;;9.90;6.20;;;;;;;4.47;53.46;101024.84;5015217;27;98540;-78
2023/01/29 11:36:40;;;;;;;13.23;6.70;;;;;;;4.47;53.50;101024.84;4994082;27;101590;-79
2023/01/29 11:39:15;;;;;;;9.03;6.10;;;;;;;4.50;53.75;101024.84;4953031;27;97057;-81
2023/01/29 11:41:52;;;;;;;10.23;6.50;;;;;;;4.49;53.42;101017.91;5040689;27;97257;-80
2023/01/29 11:44:29;;;;;;;10.43;6.00;;;;;;;4.49;53.62;101010.97;5027201;27;98058;-80
2023/01/29 11:46:57;;;;;;;12.17;5.93;;;;;;;4.51;53.89;101003.19;4994595;27;101727;-81
2023/01/29 11:49:31;;;;;;;9.33;5.37;;;;;;;4.47;53.94;100993.63;5003433;27;97233;-80
2023/01/29 11:52:00;;;;;;;11.60;6.17;;;;;;;4.49;53.95;100987.59;4975970;27;98202;-80
2023/01/29 11:54:30;;;;;;;10.43;6.30;;;;;;;4.47;54.33;100988.44;4995049;27;100920;-80
2023/01/29 11:56:56;;;;;;;8.90;5.60;;;;;;;4.38;54.32;100981.50;5043803;27;101189;-82
2023/01/29 11:59:31;;;;;;;9.60;6.40;;;;;;;4.43;54.53;100977.19;4999349;27;97471;-83
2023/01/29 12:02:25;;;;;;;10.87;6.00;;;;;;;4.40;54.63;100968.50;5011630;27;97602;-82
2023/01/29 12:04:51;;;;;;;6.93;4.77;;;;;;;4.38;55.01;100952.03;5025669;27;97824;-84
2023/01/29 12:07:17;;;;;;;7.50;5.10;;;;;;;4.43;54.84;100961.56;4999481;28;101574;-82
2023/01/29 12:09:53;;;;;;;11.97;5.83;;;;;;;4.36;54.63;100945.97;5010668;27;97390;-81
2023/01/29 12:12:40;;;;;;;11.97;6.37;;;;;;;4.47;54.97;100965.03;5011209;27;97458;-81